createdAt,value
2018-01-21T00:01:58.807Z,3.60
2018-01-21T00:04:26.337Z,3.58
2018-01-21T00:06:53.860Z,3.59
2018-01-21T00:09:21.322Z,3.58
2018-01-21T00:11:48.807Z,3.56
2018-01-21T00:14:16.346Z,3.55
2018-01-21T00:16:43.867Z,3.54
2018-01-21T00:19:11.532Z,3.55
2018-01-21T00:21:38.999Z,3.57
2018-01-21T00:24:06.569Z,3.57
2018-01-21T00:26:34.058Z,3.58
2018-01-21T00:29:01.550Z,3.51
2018-01-21T00:31:29.967Z,3.49
2018-01-21T00:33:57.577Z,3.49
2018-01-21T00:36:25.036Z,3.51
2018-01-21T00:38:52.678Z,3.51
2018-01-21T00:41:20.170Z,3.49
2018-01-21T00:43:47.695Z,3.45
2018-01-21T00:46:15.295Z,3.43
2018-01-21T00:48:42.775Z,3.42
2018-01-21T00:51:11.016Z,3.42
2018-01-21T00:53:38.489Z,3.41
2018-01-21T00:56:06.027Z,3.37
2018-01-21T00:58:33.507Z,3.39
2018-01-21T01:01:01.007Z,3.39
2018-01-21T01:03:28.555Z,3.40
2018-01-21T01:05:56.020Z,3.40
2018-01-21T01:08:23.498Z,3.39
2018-01-21T01:10:50.971Z,3.41
2018-01-21T01:13:18.488Z,3.38
2018-01-21T01:15:45.940Z,3.38
2018-01-21T01:18:13.407Z,3.41
2018-01-21T01:20:40.864Z,3.43
2018-01-21T01:23:08.333Z,3.40
2018-01-21T01:25:35.853Z,3.41
2018-01-21T01:28:03.298Z,3.37
2018-01-21T01:30:30.778Z,3.33
2018-01-21T01:32:58.307Z,3.35
2018-01-21T01:35:25.930Z,3.33
2018-01-21T01:37:53.430Z,3.33
2018-01-21T01:40:20.955Z,3.33
2018-01-21T01:42:48.469Z,3.33
2018-01-21T01:45:15.919Z,3.33
2018-01-21T01:47:43.460Z,3.32
2018-01-21T01:50:10.991Z,3.32
2018-01-21T01:52:38.583Z,3.33
2018-01-21T01:55:06.079Z,3.32
2018-01-21T01:57:33.558Z,3.35
2018-01-21T02:00:01.007Z,3.38
2018-01-21T02:02:29.395Z,3.40
2018-01-21T02:04:56.904Z,3.39
2018-01-21T02:07:24.347Z,3.41
2018-01-21T02:09:51.945Z,3.41
2018-01-21T02:12:19.425Z,3.41
2018-01-21T02:14:46.890Z,3.40
2018-01-21T02:17:14.333Z,3.43
2018-01-21T02:19:42.282Z,3.35
2018-01-21T02:22:16.958Z,3.33
2018-01-21T02:24:45.090Z,3.29
2018-01-21T02:27:12.576Z,3.28
2018-01-21T02:29:40.182Z,3.31
2018-01-21T02:32:07.716Z,3.28
2018-01-21T02:34:35.327Z,3.29
2018-01-21T02:37:04.285Z,3.30
2018-01-21T02:39:31.814Z,3.26
2018-01-21T02:41:59.385Z,3.25
2018-01-21T02:44:26.887Z,3.21
2018-01-21T02:46:54.361Z,3.16
2018-01-21T02:49:21.894Z,3.15
2018-01-21T02:51:49.355Z,3.16
2018-01-21T02:54:16.817Z,3.15
2018-01-21T02:56:44.286Z,3.13
2018-01-21T02:59:11.751Z,3.11
2018-01-21T03:01:39.226Z,3.07
2018-01-21T03:04:06.674Z,3.08
2018-01-21T03:06:34.142Z,3.05
2018-01-21T03:09:01.686Z,3.09
2018-01-21T03:11:29.174Z,3.08
2018-01-21T03:13:56.636Z,3.09
2018-01-21T03:16:24.127Z,3.10
2018-01-21T03:18:51.599Z,3.10
2018-01-21T03:21:19.078Z,3.09
2018-01-21T03:23:46.538Z,3.07
2018-01-21T03:26:13.990Z,3.05
2018-01-21T03:28:42.298Z,3.06
2018-01-21T03:31:10.008Z,3.10
2018-01-21T03:33:37.486Z,3.13
2018-01-21T03:36:04.963Z,3.05
2018-01-21T03:38:32.581Z,3.01
2018-01-21T03:41:00.064Z,2.96
2018-01-21T03:43:27.573Z,2.92
2018-01-21T03:45:55.062Z,2.93
2018-01-21T03:48:23.555Z,2.95
2018-01-21T03:50:52.793Z,2.97
2018-01-21T03:53:20.256Z,2.88
2018-01-21T03:55:47.752Z,2.87
2018-01-21T03:58:15.793Z,2.86
2018-01-21T04:00:43.288Z,2.82
2018-01-21T04:03:10.745Z,2.84
2018-01-21T04:05:38.247Z,2.87
2018-01-21T04:08:05.740Z,2.78
2018-01-21T04:10:33.182Z,2.74
2018-01-21T04:13:00.666Z,2.75
2018-01-21T04:15:28.158Z,2.75
2018-01-21T04:17:55.610Z,2.70
2018-01-21T04:20:23.219Z,2.70
2018-01-21T04:22:50.679Z,2.73
2018-01-21T04:25:18.159Z,2.72
2018-01-21T04:27:45.617Z,2.72
2018-01-21T04:30:13.069Z,2.73
2018-01-21T04:32:40.508Z,2.76
2018-01-21T04:35:07.980Z,2.80
2018-01-21T04:37:35.448Z,2.77
2018-01-21T04:40:02.896Z,2.75
2018-01-21T04:42:30.424Z,2.73
2018-01-21T04:44:57.905Z,2.73
2018-01-21T04:47:25.410Z,2.79
2018-01-21T04:49:52.897Z,2.73
2018-01-21T04:52:20.359Z,2.68
2018-01-21T04:54:47.818Z,2.68
2018-01-21T04:57:15.260Z,2.61
2018-01-21T04:59:47.754Z,2.54
2018-01-21T05:02:15.234Z,2.53
2018-01-21T05:04:42.754Z,2.51
2018-01-21T05:07:10.192Z,2.51
2018-01-21T05:09:37.647Z,2.52
2018-01-21T05:12:05.144Z,2.51
2018-01-21T05:14:32.618Z,2.50
2018-01-21T05:17:00.156Z,2.51
2018-01-21T05:19:27.614Z,2.48
2018-01-21T05:21:55.099Z,2.46
2018-01-21T05:24:22.592Z,2.46
2018-01-21T05:26:50.059Z,2.51
2018-01-21T05:29:17.559Z,2.56
2018-01-21T05:31:45.068Z,2.55
2018-01-21T05:34:12.564Z,2.55
2018-01-21T05:36:40.073Z,2.57
2018-01-21T05:39:07.580Z,2.57
2018-01-21T05:41:35.056Z,2.52
2018-01-21T05:44:02.566Z,2.50
2018-01-21T05:46:30.033Z,2.49
2018-01-21T05:48:57.509Z,2.49
2018-01-21T05:51:24.999Z,2.49
2018-01-21T05:53:52.437Z,2.55
2018-01-21T05:56:19.918Z,2.56
2018-01-21T05:58:47.507Z,2.55
2018-01-21T06:01:14.961Z,2.52
2018-01-21T06:03:42.486Z,2.53
2018-01-21T06:06:10.016Z,2.53
2018-01-21T06:08:37.473Z,2.54
2018-01-21T06:11:04.923Z,2.51
2018-01-21T06:13:32.437Z,2.50
2018-01-21T06:15:59.897Z,2.48
2018-01-21T06:18:27.352Z,2.41
2018-01-21T06:20:54.828Z,2.39
2018-01-21T06:23:22.285Z,2.40
2018-01-21T06:25:49.764Z,2.38
2018-01-21T06:28:17.234Z,2.35
2018-01-21T06:30:44.807Z,2.36
2018-01-21T06:33:12.256Z,2.33
2018-01-21T06:35:39.698Z,2.34
2018-01-21T06:38:07.187Z,2.32
2018-01-21T06:40:34.739Z,2.34
2018-01-21T06:43:02.243Z,2.37
2018-01-21T06:45:29.697Z,2.38
2018-01-21T06:47:57.735Z,2.32
2018-01-21T06:50:25.289Z,2.31
2018-01-21T06:52:52.775Z,2.25
2018-01-21T06:55:20.223Z,2.23
2018-01-21T06:57:47.689Z,2.23
2018-01-21T07:00:15.225Z,2.23
2018-01-21T07:02:42.667Z,2.26
2018-01-21T07:05:10.111Z,2.24
2018-01-21T07:07:37.627Z,2.26
2018-01-21T07:10:05.131Z,2.29
2018-01-21T07:12:32.623Z,2.32
2018-01-21T07:15:00.167Z,2.35
2018-01-21T07:17:27.648Z,2.35
2018-01-21T07:19:56.044Z,2.32
2018-01-21T07:22:23.522Z,2.32
2018-01-21T07:24:50.979Z,2.26
2018-01-21T07:27:18.760Z,2.26
2018-01-21T07:29:46.638Z,2.26
2018-01-21T07:32:14.090Z,2.26
2018-01-21T07:34:41.536Z,2.24
2018-01-21T07:37:09.031Z,2.19
2018-01-21T07:39:36.560Z,2.12
2018-01-21T07:42:04.038Z,2.09
2018-01-21T07:44:31.487Z,2.12
2018-01-21T07:46:58.960Z,2.15
2018-01-21T07:49:26.781Z,2.12
2018-01-21T07:51:54.320Z,2.14
2018-01-21T07:54:21.794Z,2.10
2018-01-21T07:56:49.252Z,2.14
2018-01-21T07:59:16.712Z,2.17
2018-01-21T08:01:44.172Z,2.30
2018-01-21T08:04:11.726Z,2.52
2018-01-21T08:06:39.224Z,2.68
2018-01-21T08:09:06.971Z,2.75
2018-01-21T08:11:34.445Z,2.72
2018-01-21T08:14:01.955Z,2.62
2018-01-21T08:16:29.466Z,2.52
2018-01-21T08:18:56.957Z,2.43
2018-01-21T08:21:24.449Z,2.41
2018-01-21T08:23:52.099Z,2.39
2018-01-21T08:26:19.639Z,2.36
2018-01-21T08:28:47.124Z,2.36
2018-01-21T08:31:14.640Z,2.40
2018-01-21T08:33:47.740Z,2.42
2018-01-21T08:36:20.667Z,2.41
2018-01-21T08:38:54.676Z,2.42
2018-01-21T08:44:25.959Z,2.49
2018-01-21T08:46:53.444Z,2.55
2018-01-21T08:49:21.070Z,2.59
2018-01-21T08:51:48.581Z,2.67
2018-01-21T08:54:16.055Z,2.72
2018-01-21T08:56:43.585Z,2.84
2018-01-21T08:59:11.144Z,2.86
2018-01-21T09:01:38.652Z,2.91
2018-01-21T09:04:06.124Z,2.99
2018-01-21T09:06:33.594Z,3.05
2018-01-21T09:09:01.391Z,3.12
2018-01-21T09:11:28.903Z,3.15
2018-01-21T09:13:56.437Z,3.15
2018-01-21T09:16:23.967Z,3.06
2018-01-21T09:18:51.416Z,3.08
2018-01-21T09:21:18.963Z,3.02
2018-01-21T09:23:46.482Z,2.91
2018-01-21T09:26:14.000Z,2.88
2018-01-21T09:28:41.575Z,2.81
2018-01-21T09:31:09.038Z,2.78
2018-01-21T09:33:36.524Z,2.86
2018-01-21T09:36:04.162Z,2.82
2018-01-21T09:38:31.638Z,2.90
2018-01-21T09:40:59.177Z,2.92
2018-01-21T09:43:26.709Z,2.96
2018-01-21T09:45:54.198Z,2.91
2018-01-21T09:48:21.659Z,2.88
2018-01-21T09:50:49.153Z,2.90
2018-01-21T09:53:16.705Z,2.88
2018-01-21T09:55:44.652Z,2.90
2018-01-21T09:58:12.120Z,2.90
2018-01-21T10:00:39.690Z,2.97
2018-01-21T10:03:07.195Z,2.98
2018-01-21T10:05:34.695Z,2.97
2018-01-21T10:08:02.254Z,3.06
2018-01-21T10:10:29.792Z,3.09
2018-01-21T10:12:57.351Z,3.04
2018-01-21T10:15:25.433Z,2.96
2018-01-21T10:17:53.042Z,3.01
2018-01-21T10:20:25.546Z,3.09
2018-01-21T10:22:53.094Z,3.11
2018-01-21T10:25:20.596Z,3.18
2018-01-21T10:27:48.114Z,3.30
2018-01-21T10:30:15.751Z,3.40
2018-01-21T10:32:43.209Z,3.43
2018-01-21T10:35:10.719Z,3.48
2018-01-21T10:37:38.233Z,3.62
2018-01-21T10:40:05.938Z,3.75
2018-01-21T10:42:33.442Z,3.89
2018-01-21T10:45:01.173Z,4.01
2018-01-21T10:47:28.662Z,4.15
2018-01-21T10:49:56.255Z,4.23
2018-01-21T10:52:23.872Z,4.27
2018-01-21T10:54:51.614Z,4.19
2018-01-21T10:57:19.084Z,4.14
2018-01-21T10:59:46.726Z,4.17
2018-01-21T11:02:14.223Z,4.13
2018-01-21T11:04:41.730Z,4.06
2018-01-21T11:07:09.243Z,4.09
2018-01-21T11:09:36.789Z,4.08
2018-01-21T11:12:04.308Z,4.02
2018-01-21T11:14:31.874Z,4.01
2018-01-21T11:16:59.475Z,4.09
2018-01-21T11:19:27.025Z,4.27
2018-01-21T11:21:54.555Z,4.58
2018-01-21T11:24:22.009Z,5.07
2018-01-21T11:26:49.573Z,5.37
2018-01-21T11:29:17.130Z,5.85
2018-01-21T11:31:44.645Z,6.21
2018-01-21T11:34:12.196Z,6.17
2018-01-21T11:36:39.750Z,5.95
2018-01-21T11:39:07.297Z,5.81
2018-01-21T11:41:34.829Z,5.79
2018-01-21T11:44:02.343Z,6.21
2018-01-21T11:46:29.882Z,6.55
2018-01-21T11:48:57.363Z,7.07
2018-01-21T11:51:24.885Z,6.87
2018-01-21T11:53:52.381Z,6.71
2018-01-21T11:56:19.955Z,6.59
2018-01-21T11:58:47.438Z,6.89
2018-01-21T12:01:14.902Z,7.36
2018-01-21T12:03:42.651Z,7.32
2018-01-21T12:06:10.166Z,7.42
2018-01-21T12:08:37.631Z,7.68
2018-01-21T12:11:05.214Z,7.76
2018-01-21T12:13:32.716Z,7.66
2018-01-21T12:16:00.209Z,7.58
2018-01-21T12:18:27.718Z,7.40
2018-01-21T12:20:55.297Z,7.39
2018-01-21T12:23:22.870Z,7.31
2018-01-21T12:25:50.427Z,7.16
2018-01-21T12:28:17.940Z,6.89
2018-01-21T12:30:45.442Z,6.73
2018-01-21T12:33:12.966Z,6.48
2018-01-21T12:35:40.483Z,6.28
2018-01-21T12:38:07.947Z,6.08
2018-01-21T12:40:40.389Z,6.22
2018-01-21T12:43:07.895Z,6.13
2018-01-21T12:45:35.434Z,6.03
2018-01-21T12:48:02.931Z,6.21
2018-01-21T12:50:30.585Z,6.54
2018-01-21T12:52:58.065Z,6.75
2018-01-21T12:55:25.558Z,6.84
2018-01-21T12:57:53.122Z,6.68
2018-01-21T13:00:20.608Z,6.51
2018-01-21T13:02:48.095Z,6.30
2018-01-21T13:05:15.582Z,6.12
2018-01-21T13:07:43.090Z,5.98
2018-01-21T13:10:10.624Z,6.04
2018-01-21T13:12:38.986Z,6.19
2018-01-21T13:15:06.745Z,6.41
2018-01-21T13:17:34.272Z,6.59
2018-01-21T13:20:02.706Z,6.62
2018-01-21T13:22:30.237Z,6.68
2018-01-21T13:24:57.807Z,6.56
2018-01-21T13:27:25.489Z,6.35
2018-01-21T13:29:53.061Z,6.21
2018-01-21T13:32:20.596Z,6.03
2018-01-21T13:34:48.104Z,5.81
2018-01-21T13:37:15.646Z,5.61
2018-01-21T13:39:43.836Z,5.45
2018-01-21T13:42:16.036Z,5.38
2018-01-21T13:44:43.513Z,5.32
2018-01-21T13:47:10.994Z,5.30
2018-01-21T13:49:38.451Z,5.25
2018-01-21T13:52:08.206Z,5.14
2018-01-21T13:54:35.836Z,5.05
2018-01-21T13:57:03.389Z,4.93
2018-01-21T13:59:30.942Z,4.84
2018-01-21T14:01:58.491Z,4.70
2018-01-21T14:04:26.047Z,4.63
2018-01-21T14:06:54.204Z,4.55
2018-01-21T14:09:21.821Z,4.53
2018-01-21T14:11:49.359Z,4.55
2018-01-21T14:14:17.111Z,4.57
2018-01-21T14:16:44.644Z,4.57
2018-01-21T14:19:12.151Z,4.55
2018-01-21T14:21:39.695Z,4.55
2018-01-21T14:24:07.354Z,4.55
2018-01-21T14:26:34.863Z,4.53
2018-01-21T14:29:02.426Z,4.57
2018-01-21T14:31:29.942Z,4.61
2018-01-21T14:33:57.478Z,4.69
2018-01-21T14:36:25.019Z,4.68
2018-01-21T14:38:52.553Z,4.68
2018-01-21T14:41:20.100Z,4.70
2018-01-21T14:43:47.607Z,4.67
2018-01-21T14:46:15.117Z,4.67
2018-01-21T14:48:43.396Z,4.62
2018-01-21T14:51:12.158Z,4.59
2018-01-21T14:53:39.692Z,4.55
2018-01-21T14:56:07.461Z,4.50
2018-01-21T14:58:34.956Z,4.53
2018-01-21T15:01:02.600Z,4.49
2018-01-21T15:03:30.147Z,4.41
2018-01-21T15:05:57.645Z,4.36
2018-01-21T15:08:25.733Z,4.30
2018-01-21T15:13:35.218Z,4.20
2018-01-21T15:16:02.849Z,4.17
2018-01-21T15:18:31.317Z,4.14
2018-01-21T15:20:58.851Z,4.06
2018-01-21T15:23:26.446Z,4.02
2018-01-21T15:25:54.008Z,4.00
2018-01-21T15:28:22.401Z,4.01
2018-01-21T15:30:51.689Z,4.02
2018-01-21T15:33:20.077Z,3.95
2018-01-21T15:35:47.583Z,3.88
2018-01-21T15:38:15.092Z,3.82
2018-01-21T15:40:47.525Z,3.77
2018-01-21T15:43:15.172Z,3.74
2018-01-21T15:45:44.005Z,3.69
2018-01-21T15:48:11.469Z,3.66
2018-01-21T15:50:39.002Z,3.64
2018-01-21T15:53:07.045Z,3.67
2018-01-21T15:55:34.519Z,3.75
2018-01-21T15:58:04.940Z,3.79
2018-01-21T16:00:34.639Z,3.86
2018-01-21T16:03:02.248Z,3.85
2018-01-21T16:05:29.845Z,3.81
2018-01-21T16:07:57.352Z,3.80
2018-01-21T16:10:24.948Z,3.78
2018-01-21T16:12:52.574Z,3.73
2018-01-21T16:15:20.954Z,3.77
2018-01-21T16:17:49.323Z,3.75
2018-01-21T16:20:16.911Z,3.72
2018-01-21T16:22:44.399Z,3.73
2018-01-21T16:25:11.941Z,3.74
2018-01-21T16:27:39.445Z,3.69
2018-01-21T16:30:07.014Z,3.71
2018-01-21T16:32:35.669Z,3.73
2018-01-21T16:35:03.122Z,3.62
2018-01-21T16:37:42.288Z,3.62
2018-01-21T16:40:09.747Z,3.59
2018-01-21T16:42:37.238Z,3.56
2018-01-21T16:45:04.790Z,3.56
2018-01-21T16:47:32.307Z,3.56
2018-01-21T16:49:59.781Z,3.55
2018-01-21T16:52:27.336Z,3.53
2018-01-21T16:54:54.898Z,3.53
2018-01-21T16:57:22.530Z,3.51
2018-01-21T16:59:50.010Z,3.50
2018-01-21T17:02:17.510Z,3.48
2018-01-21T17:04:45.060Z,3.50
2018-01-21T17:07:12.736Z,3.47
2018-01-21T17:09:40.391Z,3.49
2018-01-21T17:12:07.897Z,3.47
2018-01-21T17:14:35.419Z,3.51
2018-01-21T17:17:02.895Z,3.51
2018-01-21T17:19:30.383Z,3.50
2018-01-21T17:21:57.905Z,3.52
2018-01-21T17:24:25.404Z,3.52
2018-01-21T17:26:52.945Z,3.51
2018-01-21T17:29:21.385Z,3.51
2018-01-21T17:31:48.905Z,3.51
2018-01-21T17:34:16.804Z,3.49
2018-01-21T17:36:44.352Z,3.43
2018-01-21T17:39:11.924Z,3.42
2018-01-21T17:41:39.388Z,3.40
2018-01-21T17:44:06.874Z,3.39
2018-01-21T17:46:34.423Z,3.38
2018-01-21T17:49:02.212Z,3.38
2018-01-21T17:51:29.848Z,3.35
2018-01-21T17:53:57.415Z,3.39
2018-01-21T17:56:24.932Z,3.40
2018-01-21T17:58:52.503Z,3.40
2018-01-21T18:01:20.101Z,3.42
2018-01-21T18:03:47.700Z,3.44
2018-01-21T18:06:15.214Z,3.43
2018-01-21T18:08:43.065Z,3.48
2018-01-21T18:11:10.641Z,3.47
2018-01-21T18:13:38.152Z,3.51
2018-01-21T18:16:05.668Z,3.54
2018-01-21T18:18:33.224Z,3.57
2018-01-21T18:21:00.684Z,3.59
2018-01-21T18:23:28.252Z,3.62
2018-01-21T18:25:55.737Z,3.61
2018-01-21T18:28:23.366Z,3.62
2018-01-21T18:30:50.986Z,3.65
2018-01-21T18:33:18.566Z,3.62
2018-01-21T18:35:46.551Z,3.58
2018-01-21T18:38:14.152Z,3.55
2018-01-21T18:40:41.700Z,3.53
2018-01-21T18:43:09.310Z,3.52
2018-01-21T18:45:37.055Z,3.51
2018-01-21T18:48:04.587Z,3.47
2018-01-21T18:50:32.155Z,3.50
2018-01-21T18:52:59.698Z,3.50
2018-01-21T18:55:27.243Z,3.49
2018-01-21T18:57:54.778Z,3.50
2018-01-21T19:00:22.345Z,3.53
2018-01-21T19:02:49.888Z,3.48
2018-01-21T19:05:17.542Z,3.49
2018-01-21T19:07:45.371Z,3.49
2018-01-21T19:10:12.875Z,3.52
2018-01-21T19:12:40.419Z,3.52
2018-01-21T19:15:08.059Z,3.48
2018-01-21T19:17:35.578Z,3.45
2018-01-21T19:20:03.168Z,3.44
2018-01-21T19:22:30.707Z,3.39
2018-01-21T19:24:58.300Z,3.39
2018-01-21T19:27:25.876Z,3.38
2018-01-21T19:29:53.727Z,3.39
2018-01-21T19:32:21.369Z,3.38
2018-01-21T19:34:48.953Z,3.36
2018-01-21T19:37:16.647Z,3.34
2018-01-21T19:39:54.823Z,3.33
2018-01-21T19:45:23.394Z,3.27
2018-01-21T19:47:51.023Z,3.23
2018-01-21T19:50:18.699Z,3.16
2018-01-21T19:52:47.157Z,3.09
2018-01-21T19:55:14.660Z,3.04
2018-01-21T19:57:42.453Z,3.03
2018-01-21T20:00:10.956Z,3.04
2018-01-21T20:02:38.561Z,3.09
2018-01-21T20:05:06.156Z,3.09
2018-01-21T20:07:33.751Z,3.07
2018-01-21T20:10:01.299Z,3.07
2018-01-21T20:12:28.827Z,3.07
2018-01-21T20:14:56.305Z,3.11
2018-01-21T20:17:24.075Z,3.11
2018-01-21T20:19:52.255Z,3.13
2018-01-21T20:22:19.801Z,3.10
2018-01-21T20:24:47.288Z,3.10
2018-01-21T20:27:14.819Z,3.12
2018-01-21T20:29:42.435Z,3.07
2018-01-21T20:32:09.999Z,3.06
2018-01-21T20:34:37.564Z,3.08
2018-01-21T20:37:05.161Z,3.06
2018-01-21T20:39:32.758Z,3.04
2018-01-21T20:42:00.252Z,3.01
2018-01-21T20:44:27.786Z,3.03
2018-01-21T20:46:55.307Z,2.99
2018-01-21T20:49:22.818Z,2.99
2018-01-21T20:51:55.857Z,2.97
2018-01-21T20:54:29.674Z,2.99
2018-01-21T20:56:57.285Z,2.99
2018-01-21T20:59:24.805Z,3.01
2018-01-21T21:01:52.336Z,3.01
2018-01-21T21:04:19.871Z,3.02
2018-01-21T21:06:47.759Z,3.04
2018-01-21T21:09:15.240Z,3.03
2018-01-21T21:11:42.763Z,3.05
2018-01-21T21:14:10.331Z,3.03
2018-01-21T21:16:37.975Z,3.06
2018-01-21T21:19:05.496Z,3.04
2018-01-21T21:21:33.130Z,3.01
2018-01-21T21:24:00.655Z,3.02
2018-01-21T21:26:28.151Z,3.01
2018-01-21T21:28:55.736Z,3.00
2018-01-21T21:31:23.264Z,2.99
2018-01-21T21:33:50.803Z,2.99
2018-01-21T21:36:18.315Z,3.00
2018-01-21T21:38:45.817Z,3.00
2018-01-21T21:41:13.311Z,3.02
2018-01-21T21:43:40.800Z,3.03
2018-01-21T21:46:08.287Z,3.03
2018-01-21T21:48:35.836Z,3.04
2018-01-21T21:51:05.076Z,3.05
2018-01-21T21:53:32.594Z,3.03
2018-01-21T21:56:00.173Z,3.00
2018-01-21T21:58:27.810Z,2.96
2018-01-21T22:01:05.901Z,2.93
2018-01-21T22:03:34.265Z,2.93
2018-01-21T22:06:01.787Z,2.93
2018-01-21T22:08:31.111Z,2.91
2018-01-21T22:10:58.765Z,2.90
2018-01-21T22:13:26.512Z,2.90
2018-01-21T22:15:54.449Z,2.86
2018-01-21T22:18:22.036Z,2.81
2018-01-21T22:20:55.357Z,2.79
2018-01-21T22:23:23.442Z,2.79
2018-01-21T22:25:51.194Z,2.73
2018-01-21T22:28:18.839Z,2.73
2018-01-21T22:31:06.857Z,2.72
2018-01-21T22:33:34.848Z,2.73
2018-01-21T22:36:02.551Z,2.73
2018-01-21T22:38:30.377Z,2.73
2018-01-21T22:40:58.044Z,2.71
2018-01-21T22:43:25.525Z,2.70
2018-01-21T22:45:53.086Z,2.69
2018-01-21T22:48:20.725Z,2.69
2018-01-21T22:50:48.244Z,2.69
2018-01-21T22:53:15.775Z,2.71
2018-01-21T22:55:43.367Z,2.70
2018-01-21T22:58:10.912Z,2.69
2018-01-21T23:00:38.510Z,2.71
2018-01-21T23:03:06.348Z,2.70
2018-01-21T23:05:34.058Z,2.73
2018-01-21T23:08:02.061Z,2.77
2018-01-21T23:10:29.686Z,2.81
2018-01-21T23:12:57.323Z,2.86
2018-01-21T23:15:24.911Z,2.89
2018-01-21T23:17:52.399Z,2.93
2018-01-21T23:20:31.885Z,2.96
2018-01-21T23:23:01.147Z,2.96
2018-01-21T23:25:28.750Z,2.89
2018-01-21T23:27:56.230Z,2.84
2018-01-21T23:30:24.238Z,2.80
2018-01-21T23:32:52.271Z,2.75
2018-01-21T23:35:20.093Z,2.69
2018-01-21T23:37:47.844Z,2.68
2018-01-21T23:40:15.312Z,2.69
2018-01-21T23:42:42.790Z,2.69
2018-01-21T23:45:10.257Z,2.69
2018-01-21T23:47:37.772Z,2.66
2018-01-21T23:50:05.267Z,2.65
2018-01-21T23:52:32.796Z,2.64
2018-01-21T23:55:00.326Z,2.61
2018-01-21T23:57:27.799Z,2.60
2018-01-21T23:59:55.311Z,2.59
